createdAt,value
2023-04-07T00:00:58.973Z,100300.63
2023-04-07T00:02:21.654Z,100281.78
2023-04-07T00:03:44.236Z,100291.50
2023-04-07T00:05:08.694Z,100280.69
2023-04-07T00:06:36.676Z,100273.41
2023-04-07T00:07:57.714Z,100290.53
2023-04-07T00:09:23.299Z,100278.63
2023-04-07T00:10:52.187Z,100285.63
2023-04-07T00:12:16.410Z,100279.63
2023-04-07T00:13:40.689Z,100273.31
2023-04-07T00:15:02.247Z,100281.59
2023-04-07T00:16:28.974Z,100286.94
2023-04-07T00:18:07.852Z,100284.38
2023-04-07T00:19:33.835Z,100273.19
2023-04-07T00:20:57.295Z,100256.59
2023-04-07T00:22:18.737Z,100279.06
2023-04-07T00:23:44.029Z,100280.06
2023-04-07T00:25:06.876Z,100263.06
2023-04-07T00:26:31.595Z,100279.38
2023-04-07T00:27:56.145Z,100281.47
2023-04-07T00:29:18.853Z,100271.91
2023-04-07T00:30:44.517Z,100265.50
2023-04-07T00:32:09.631Z,100270.38
2023-04-07T00:33:40.810Z,100264.50
2023-04-07T00:35:04.833Z,100267.88
2023-04-07T00:36:28.847Z,100271.25
2023-04-07T00:37:49.962Z,100267.88
2023-04-07T00:39:15.121Z,100268.56
2023-04-07T00:40:37.656Z,100265.19
2023-04-07T00:41:58.271Z,100259.16
2023-04-07T00:43:20.786Z,100257.50
2023-04-07T00:44:45.462Z,100252.16
2023-04-07T00:46:06.865Z,100253.81
2023-04-07T00:47:29.432Z,100254.13
2023-04-07T00:48:56.179Z,100251.59
2023-04-07T00:50:19.579Z,100237.00
2023-04-07T00:51:42.991Z,100249.63
2023-04-07T00:53:05.750Z,100250.44
2023-04-07T00:54:29.233Z,100246.81
2023-04-07T00:55:51.546Z,100238.66
2023-04-07T00:57:14.095Z,100247.47
2023-04-07T00:58:36.366Z,100238.09
2023-04-07T00:59:59.493Z,100247.34
2023-04-07T01:01:27.829Z,100243.69
2023-04-07T01:02:58.019Z,100242.84
2023-04-07T01:04:29.307Z,100235.69
2023-04-07T01:05:57.489Z,100221.09
2023-04-07T01:07:24.157Z,100223.06
2023-04-07T01:09:04.177Z,100234.53
2023-04-07T01:10:37.028Z,100226.00
2023-04-07T01:12:16.262Z,100235.41
2023-04-07T01:13:43.834Z,100222.63
2023-04-07T01:15:18.120Z,100223.19
2023-04-07T01:16:47.291Z,100218.81
2023-04-07T01:18:34.834Z,100227.66
2023-04-07T01:20:03.934Z,100218.41
2023-04-07T01:21:30.131Z,100226.41
2023-04-07T01:22:56.350Z,100234.41
2023-04-07T01:24:39.711Z,100232.56
2023-04-07T01:26:25.620Z,100221.19
2023-04-07T01:28:01.152Z,100205.78
2023-04-07T01:29:50.869Z,100206.06
2023-04-07T01:31:18.906Z,100224.72
2023-04-07T01:32:43.165Z,100210.13
2023-04-07T01:34:05.253Z,100214.63
2023-04-07T01:35:40.735Z,100228.25
2023-04-07T01:37:10.184Z,100213.25
2023-04-07T01:38:32.323Z,100224.72
2023-04-07T01:39:54.958Z,100209.44
2023-04-07T01:41:17.494Z,100222.34
2023-04-07T01:42:41.019Z,100221.19
2023-04-07T01:44:08.126Z,100203.53
2023-04-07T01:45:34.751Z,100221.50
2023-04-07T01:46:58.133Z,100209.88
2023-04-07T01:48:23.168Z,100224.03
2023-04-07T01:49:48.023Z,100220.66
2023-04-07T01:51:12.196Z,100216.31
2023-04-07T01:52:36.105Z,100219.81
2023-04-07T01:54:05.250Z,100220.78
2023-04-07T01:55:28.056Z,100220.13
2023-04-07T01:56:57.968Z,100215.75
2023-04-07T01:58:20.018Z,100206.50
2023-04-07T01:59:46.248Z,100197.25
2023-04-07T02:01:10.108Z,100199.94
2023-04-07T02:02:35.565Z,100214.38
2023-04-07T02:04:07.961Z,100214.50
2023-04-07T02:05:32.306Z,100206.94
2023-04-07T02:07:01.018Z,100199.63
2023-04-07T02:08:36.939Z,100211.00
2023-04-07T02:10:02.140Z,100205.25
2023-04-07T02:11:24.951Z,100207.63
2023-04-07T02:12:54.619Z,100205.53
2023-04-07T02:14:21.365Z,100213.28
2023-04-07T02:16:28.239Z,100201.88
2023-04-07T02:18:01.153Z,100203.84
2023-04-07T02:19:22.885Z,100201.31
2023-04-07T02:20:46.463Z,100205.00
2023-04-07T02:22:11.857Z,100201.47
2023-04-07T02:24:04.618Z,100197.13
2023-04-07T02:25:30.239Z,100190.66
2023-04-07T02:26:52.459Z,100198.25
2023-04-07T02:28:15.989Z,100189.84
2023-04-07T02:29:41.153Z,100192.38
2023-04-07T02:31:02.310Z,100186.03
2023-04-07T02:32:48.259Z,100178.91
2023-04-07T02:34:36.213Z,100189.28
2023-04-07T02:36:01.284Z,100186.63
2023-04-07T02:37:25.313Z,100192.78
2023-04-07T02:38:47.636Z,100204.28
2023-04-07T02:40:18.414Z,100193.09
2023-04-07T02:41:40.851Z,100195.47
2023-04-07T02:43:01.599Z,100193.09
2023-04-07T02:44:23.746Z,100192.94
2023-04-07T02:45:47.368Z,100193.91
2023-04-07T02:47:12.688Z,100185.91
2023-04-07T02:48:35.060Z,100187.59
2023-04-07T02:49:58.169Z,100184.25
2023-04-07T02:51:19.703Z,100185.38
2023-04-07T02:52:44.392Z,100180.44
2023-04-07T02:54:09.598Z,100183.25
2023-04-07T02:55:30.761Z,100174.81
2023-04-07T02:56:52.946Z,100172.28
2023-04-07T02:58:20.786Z,100173.59
2023-04-07T02:59:41.931Z,100180.28
2023-04-07T03:01:08.352Z,100174.97
2023-04-07T03:02:30.930Z,100170.75
2023-04-07T03:03:54.758Z,100181.41
2023-04-07T03:05:19.284Z,100177.09
2023-04-07T03:06:41.954Z,100177.78
2023-04-07T03:08:12.272Z,100169.78
2023-04-07T03:09:34.270Z,100172.59
2023-04-07T03:10:57.069Z,100166.25
2023-04-07T03:12:24.150Z,100167.53
2023-04-07T03:13:56.862Z,100170.03
2023-04-07T03:15:20.082Z,100180.44
2023-04-07T03:16:43.563Z,100172.16
2023-04-07T03:18:08.230Z,100173.59
2023-04-07T03:19:55.969Z,100166.81
2023-04-07T03:21:19.670Z,100181.41
2023-04-07T03:22:42.275Z,100183.38
2023-04-07T03:24:21.846Z,100156.03
2023-04-07T03:25:44.130Z,100174.72
2023-04-07T03:27:12.782Z,100182.72
2023-04-07T03:28:39.969Z,100176.34
2023-04-07T03:30:09.066Z,100182.53
2023-04-07T03:31:31.609Z,100185.06
2023-04-07T03:32:54.361Z,100192.91
2023-04-07T03:34:27.011Z,100186.75
2023-04-07T03:35:56.637Z,100167.13
2023-04-07T03:37:20.648Z,100170.47
2023-04-07T03:38:46.570Z,100174.69
2023-04-07T03:40:10.484Z,100184.22
2023-04-07T03:41:33.775Z,100170.03
2023-04-07T03:42:57.525Z,100173.56
2023-04-07T03:44:22.274Z,100178.03
2023-04-07T03:45:48.193Z,100181.41
2023-04-07T03:47:12.219Z,100180.56
2023-04-07T03:48:34.507Z,100160.06
2023-04-07T03:49:59.969Z,100180.44
2023-04-07T03:51:24.595Z,100175.09
2023-04-07T03:52:52.031Z,100177.78
2023-04-07T03:54:18.559Z,100177.47
2023-04-07T03:55:40.873Z,100169.34
2023-04-07T03:57:10.917Z,100167.34
2023-04-07T03:58:37.529Z,100171.44
2023-04-07T03:59:59.976Z,100175.09
2023-04-07T04:01:29.456Z,100175.09
2023-04-07T04:02:53.890Z,100177.47
2023-04-07T04:04:15.656Z,100174.81
2023-04-07T04:05:38.517Z,100182.81
2023-04-07T04:07:03.541Z,100173.72
2023-04-07T04:08:33.168Z,100179.31
2023-04-07T04:09:56.404Z,100169.78
2023-04-07T04:11:17.974Z,100166.81
2023-04-07T04:12:52.792Z,100174.94
2023-04-07T04:14:33.827Z,100174.09
2023-04-07T04:15:58.369Z,100174.72
2023-04-07T04:17:19.335Z,100176.38
2023-04-07T04:18:42.686Z,100176.25
2023-04-07T04:20:07.752Z,100171.16
2023-04-07T04:21:37.928Z,100176.38
2023-04-07T04:23:07.136Z,100174.53
2023-04-07T04:24:28.851Z,100176.38
2023-04-07T04:26:00.290Z,100173.81
2023-04-07T04:27:23.495Z,100174.72
2023-04-07T04:28:54.584Z,100182.53
2023-04-07T04:30:29.099Z,100180.72
2023-04-07T04:31:55.129Z,100179.03
2023-04-07T04:33:17.302Z,100178.06
2023-04-07T04:34:50.804Z,100173.81
2023-04-07T04:36:12.105Z,100175.53
2023-04-07T04:37:35.995Z,100176.47
2023-04-07T04:39:04.100Z,100173.81
2023-04-07T04:40:27.873Z,100178.31
2023-04-07T04:41:49.557Z,100168.63
2023-04-07T04:43:13.301Z,100180.16
2023-04-07T04:44:39.296Z,100169.78
2023-04-07T04:46:10.732Z,100168.63
2023-04-07T04:47:36.269Z,100175.09
2023-04-07T04:49:01.157Z,100177.78
2023-04-07T04:50:26.421Z,100188.28
2023-04-07T04:51:52.176Z,100184.22
2023-04-07T04:53:14.078Z,100178.03
2023-04-07T04:54:56.720Z,100174.81
2023-04-07T04:56:19.388Z,100172.16
2023-04-07T04:57:44.045Z,100169.06
2023-04-07T04:59:09.517Z,100164.03
2023-04-07T05:00:58.329Z,100164.03
2023-04-07T05:02:30.129Z,100179.31
2023-04-07T05:03:53.207Z,100170.63
2023-04-07T05:05:18.746Z,100159.25
2023-04-07T05:06:43.982Z,100171.63
2023-04-07T05:08:12.518Z,100173.69
2023-04-07T05:09:35.008Z,100168.25
2023-04-07T05:15:03.446Z,100180.28
2023-04-07T05:16:28.794Z,100180.03
2023-04-07T05:17:53.440Z,100181.81
2023-04-07T05:19:31.033Z,100168.38
2023-04-07T05:21:08.503Z,100189.69
2023-04-07T05:22:31.068Z,100173.69
2023-04-07T05:23:55.056Z,100178.75
2023-04-07T05:29:43.403Z,100173.28
2023-04-07T05:33:05.852Z,100173.81
2023-04-07T05:34:54.354Z,100181.81
2023-04-07T05:36:18.139Z,100174.94
2023-04-07T05:37:51.342Z,100167.09
2023-04-07T05:39:25.923Z,100171.16
2023-04-07T05:40:55.813Z,100182.00
2023-04-07T05:42:32.320Z,100179.47
2023-04-07T05:44:20.606Z,100183.22
2023-04-07T05:45:48.968Z,100171.44
2023-04-07T05:47:13.800Z,100175.53
2023-04-07T05:48:38.382Z,100180.41
2023-04-07T05:50:01.077Z,100175.06
2023-04-07T05:51:23.439Z,100183.78
2023-04-07T05:52:49.310Z,100178.31
2023-04-07T05:54:20.230Z,100186.72
2023-04-07T05:55:44.526Z,100188.25
2023-04-07T05:57:17.488Z,100191.91
2023-04-07T05:58:40.740Z,100184.03
2023-04-07T06:00:07.760Z,100176.03
2023-04-07T06:01:40.268Z,100176.19
2023-04-07T06:03:33.531Z,100191.47
2023-04-07T06:05:05.600Z,100190.09
2023-04-07T06:06:32.091Z,100195.00
2023-04-07T06:07:59.573Z,100185.59
2023-04-07T06:09:22.938Z,100192.47
2023-04-07T06:10:46.842Z,100187.97
2023-04-07T06:12:12.478Z,100188.66
2023-04-07T06:13:37.742Z,100199.34
2023-04-07T06:22:07.388Z,100172.38
2023-04-07T06:27:40.709Z,100189.06
2023-04-07T06:32:04.171Z,100187.63
2023-04-07T06:36:36.923Z,100191.56
2023-04-07T06:38:05.044Z,100169.34
2023-04-07T06:39:45.935Z,100184.25
2023-04-07T06:41:17.154Z,100174.00
2023-04-07T06:42:57.841Z,100179.19
2023-04-07T06:44:49.878Z,100183.34
2023-04-07T06:46:47.171Z,100185.06
2023-04-07T06:49:22.243Z,100165.72
2023-04-07T06:51:21.521Z,100178.31
2023-04-07T06:52:50.635Z,100157.97
2023-04-07T06:54:54.154Z,100165.09
2023-04-07T07:00:23.520Z,100176.25
2023-04-07T07:02:58.313Z,100174.69
2023-04-07T07:04:37.756Z,100163.69
2023-04-07T07:13:14.012Z,100164.28
2023-04-07T07:14:53.392Z,100167.03
2023-04-07T07:16:20.407Z,100151.31
2023-04-07T07:17:53.597Z,100141.13
2023-04-07T07:19:27.198Z,100164.28
2023-04-07T07:25:14.481Z,100147.50
2023-04-07T07:26:49.040Z,100157.03
2023-04-07T07:28:11.534Z,100167.94
2023-04-07T07:30:57.135Z,100154.88
2023-04-07T07:39:56.548Z,100176.13
2023-04-07T07:41:24.305Z,100169.16
2023-04-07T08:04:10.480Z,100200.41
2023-04-07T08:06:58.994Z,100212.78
2023-04-07T08:08:23.678Z,100197.59
2023-04-07T08:12:22.664Z,100195.88
2023-04-07T08:15:54.985Z,100188.88
2023-04-07T08:17:21.838Z,100196.13
2023-04-07T08:19:08.095Z,100189.63
2023-04-07T08:27:10.683Z,100184.00
2023-04-07T08:29:41.778Z,100194.13
2023-04-07T08:53:06.388Z,100174.69
2023-04-07T09:00:10.402Z,100185.72
2023-04-07T09:07:44.463Z,100164.06
2023-04-07T09:09:16.946Z,100177.13
2023-04-07T09:10:53.477Z,100181.66
2023-04-07T09:12:18.020Z,100181.00
2023-04-07T09:13:41.494Z,100171.78
2023-04-07T09:15:08.681Z,100176.97
2023-04-07T09:16:34.705Z,100166.88
2023-04-07T09:18:08.737Z,100167.41
2023-04-07T09:20:28.160Z,100186.84
2023-04-07T09:21:58.295Z,100172.91
2023-04-07T09:23:44.511Z,100173.09
2023-04-07T09:25:21.147Z,100170.06
2023-04-07T09:26:46.649Z,100182.13
2023-04-07T09:28:11.660Z,100177.09
2023-04-07T09:30:02.062Z,100177.94
2023-04-07T09:31:47.208Z,100178.44
2023-04-07T09:33:11.301Z,100176.75
2023-04-07T09:34:36.137Z,100179.44
2023-04-07T09:35:59.733Z,100173.88
2023-04-07T09:37:25.062Z,100165.19
2023-04-07T09:39:13.247Z,100161.50
2023-04-07T09:40:38.730Z,100180.63
2023-04-07T09:42:00.976Z,100167.38
2023-04-07T09:43:23.288Z,100170.56
2023-04-07T09:44:46.386Z,100174.94
2023-04-07T09:46:16.868Z,100169.06
2023-04-07T09:47:57.702Z,100174.94
2023-04-07T09:49:22.071Z,100164.22
2023-04-07T09:51:13.120Z,100164.72
2023-04-07T09:52:53.273Z,100169.75
2023-04-07T09:54:34.885Z,100175.81
2023-04-07T09:56:02.585Z,100170.56
2023-04-07T09:57:30.380Z,100171.94
2023-04-07T09:58:55.712Z,100191.56
2023-04-07T10:00:40.999Z,100175.13
2023-04-07T10:02:13.639Z,100179.47
2023-04-07T10:04:07.284Z,100178.16
2023-04-07T10:06:28.669Z,100180.66
2023-04-07T10:07:57.303Z,100180.47
2023-04-07T10:09:25.290Z,100169.94
2023-04-07T10:10:48.537Z,100171.94
2023-04-07T10:12:17.099Z,100157.84
2023-04-07T10:17:00.163Z,100158.34
2023-04-07T10:21:45.058Z,100158.34
2023-04-07T10:23:44.009Z,100165.91
2023-04-07T10:25:25.800Z,100166.75
2023-04-07T10:27:51.180Z,100167.25
2023-04-07T10:29:36.612Z,100153.84
2023-04-07T10:31:30.940Z,100159.53
2023-04-07T10:32:59.417Z,100154.66
2023-04-07T10:34:59.636Z,100150.81
2023-04-07T10:45:29.548Z,100163.22
2023-04-07T10:51:23.235Z,100169.06
2023-04-07T10:52:48.627Z,100166.38
2023-04-07T10:54:23.048Z,100172.75
2023-04-07T10:56:53.260Z,100171.06
2023-04-07T10:59:04.409Z,100166.38
2023-04-07T11:01:33.290Z,100156.78
2023-04-07T11:02:58.005Z,100172.06
2023-04-07T11:04:21.173Z,100166.53
2023-04-07T11:08:42.722Z,100180.28
2023-04-07T11:12:25.156Z,100170.72
2023-04-07T11:14:00.782Z,100160.16
2023-04-07T11:15:23.769Z,100176.94
2023-04-07T11:20:00.168Z,100180.44
2023-04-07T11:22:41.693Z,100176.25
2023-04-07T11:27:02.103Z,100181.94
2023-04-07T11:28:42.305Z,100170.34
2023-04-07T11:30:17.061Z,100167.16
2023-04-07T11:38:05.483Z,100178.72
2023-04-07T11:39:55.852Z,100164.28
2023-04-07T11:41:37.627Z,100163.28
2023-04-07T11:43:17.392Z,100172.53
2023-04-07T11:45:25.505Z,100163.28
2023-04-07T11:52:47.239Z,100174.81
2023-04-07T11:54:13.945Z,100161.06
2023-04-07T11:55:41.111Z,100177.00
2023-04-07T11:57:07.126Z,100170.63
2023-04-07T11:58:33.035Z,100149.69
2023-04-07T12:00:17.286Z,100171.66
2023-04-07T12:01:45.309Z,100154.25
2023-04-07T12:03:16.360Z,100147.72
2023-04-07T12:28:01.617Z,100148.94
2023-04-07T13:00:57.029Z,100125.81
2023-04-07T13:12:17.268Z,100124.66
2023-04-07T13:47:47.038Z,100121.53
2023-04-07T13:49:16.488Z,100123.88
2023-04-07T13:50:42.941Z,100133.44
2023-04-07T13:52:12.292Z,100126.88
2023-04-07T13:53:43.982Z,100130.25
2023-04-07T13:55:25.043Z,100120.84
2023-04-07T13:56:49.091Z,100123.53
2023-04-07T13:59:02.305Z,100136.44
2023-04-07T14:00:27.865Z,100132.41
2023-04-07T14:01:56.141Z,100130.06
2023-04-07T14:03:21.174Z,100132.72
2023-04-07T14:04:49.537Z,100129.50
2023-04-07T14:06:12.025Z,100133.56
2023-04-07T14:07:34.691Z,100141.59
2023-04-07T14:09:29.191Z,100125.81
2023-04-07T14:10:51.642Z,100138.91
2023-04-07T14:12:14.379Z,100138.91
2023-04-07T14:14:00.652Z,100136.00
2023-04-07T14:15:28.641Z,100130.31
2023-04-07T14:17:29.965Z,100145.34
2023-04-07T14:23:04.248Z,100140.81
2023-04-07T14:24:31.208Z,100144.50
2023-04-07T14:25:58.967Z,100148.16
2023-04-07T14:27:22.563Z,100128.19
2023-04-07T14:28:55.165Z,100138.06
2023-04-07T14:30:37.669Z,100146.00
2023-04-07T14:33:39.295Z,100140.63
2023-04-07T14:34:19.676Z,100137.84
2023-04-07T14:39:20.199Z,100136.53
2023-04-07T14:44:01.088Z,100135.91
2023-04-07T14:46:15.426Z,100137.34
2023-04-07T14:48:28.743Z,100138.69
2023-04-07T14:51:09.602Z,100140.34
2023-04-07T14:52:52.968Z,100148.69
2023-04-07T14:54:53.327Z,100149.41
2023-04-07T14:56:58.670Z,100132.22
2023-04-07T14:58:41.039Z,100143.59
2023-04-07T15:17:55.509Z,100138.22
2023-04-07T15:34:51.681Z,100147.56
2023-04-07T15:39:49.041Z,100166.78
2023-04-07T15:41:27.680Z,100155.72
2023-04-07T15:45:15.695Z,100153.53
2023-04-07T15:46:56.837Z,100156.88
2023-04-07T15:52:40.213Z,100160.22
2023-04-07T15:59:35.730Z,100143.88
2023-04-07T16:01:05.663Z,100148.63
2023-04-07T16:02:34.298Z,100145.09
2023-04-07T16:03:59.094Z,100139.94
2023-04-07T16:11:07.519Z,100136.19
2023-04-07T16:13:47.136Z,100159.47
2023-04-07T16:18:17.500Z,100137.91
2023-04-07T16:20:19.876Z,100148.00
2023-04-07T16:22:59.735Z,100147.31
2023-04-07T16:24:25.845Z,100141.59
2023-04-07T16:26:08.610Z,100138.91
2023-04-07T16:27:36.109Z,100143.88
2023-04-07T16:28:58.834Z,100136.00
2023-04-07T16:30:26.076Z,100144.25
2023-04-07T16:31:55.429Z,100144.25
2023-04-07T16:33:21.033Z,100143.75
2023-04-07T16:38:58.083Z,100149.09
2023-04-07T16:40:26.610Z,100135.63
2023-04-07T16:41:49.399Z,100127.22
2023-04-07T16:43:20.271Z,100142.66
2023-04-07T16:44:43.488Z,100139.59
2023-04-07T16:46:36.784Z,100148.00
2023-04-07T16:50:05.595Z,100137.50
2023-04-07T16:51:32.457Z,100137.50
2023-04-07T16:52:57.809Z,100148.59
2023-04-07T16:55:39.098Z,100158.31
2023-04-07T16:57:10.120Z,100151.03
2023-04-07T16:58:51.310Z,100158.88
2023-04-07T17:00:25.577Z,100145.44
2023-04-07T17:02:08.445Z,100150.03
2023-04-07T17:04:04.397Z,100156.66
2023-04-07T17:05:48.793Z,100168.22
2023-04-07T17:10:38.958Z,100155.88
2023-04-07T17:12:09.000Z,100152.22
2023-04-07T17:17:27.833Z,100172.47
2023-04-07T17:20:11.682Z,100161.25
2023-04-07T17:22:01.898Z,100177.41
2023-04-07T17:23:58.135Z,100182.03
2023-04-07T17:25:28.015Z,100171.81
2023-04-07T17:47:41.517Z,100190.41
2023-04-07T18:02:00.188Z,100204.19
2023-04-07T18:19:38.582Z,100198.72
2023-04-07T18:21:03.707Z,100208.13
2023-04-07T18:24:18.262Z,100206.28
2023-04-07T18:25:40.420Z,100213.56
2023-04-07T18:38:09.648Z,100210.78
2023-04-07T18:39:45.905Z,100204.63
2023-04-07T18:41:14.436Z,100225.09
2023-04-07T18:50:10.895Z,100216.13
2023-04-07T18:51:36.074Z,100205.19
2023-04-07T18:53:02.048Z,100215.28
2023-04-07T18:54:29.285Z,100219.81
2023-04-07T18:55:51.955Z,100216.69
2023-04-07T18:57:14.841Z,100211.63
2023-04-07T18:58:44.030Z,100214.03
2023-04-07T19:00:42.764Z,100218.06
2023-04-07T19:05:48.113Z,100218.38
2023-04-07T19:07:13.312Z,100223.56
2023-04-07T19:09:51.606Z,100211.09
2023-04-07T19:11:43.661Z,100221.03
2023-04-07T19:13:23.931Z,100221.88
2023-04-07T19:14:50.184Z,100213.31
2023-04-07T19:16:19.038Z,100212.50
2023-04-07T19:19:22.511Z,100205.63
2023-04-07T19:20:52.942Z,100225.09
2023-04-07T19:22:35.159Z,100225.94
2023-04-07T19:23:59.761Z,100215.56
2023-04-07T19:25:35.376Z,100212.03
2023-04-07T19:30:17.579Z,100213.16
2023-04-07T20:16:27.392Z,100201.72
2023-04-07T22:28:27.468Z,100220.97
2023-04-07T22:30:10.283Z,100209.72
2023-04-07T22:31:38.512Z,100207.63
2023-04-07T22:35:36.398Z,100208.59
2023-04-07T22:37:14.175Z,100215.31
2023-04-07T22:38:51.636Z,100206.91
2023-04-07T22:40:21.877Z,100213.94
2023-04-07T22:42:06.760Z,100216.16
2023-04-07T22:44:22.090Z,100222.06
2023-04-07T22:56:41.145Z,100243.56
2023-04-07T23:07:42.718Z,100245.13
2023-04-07T23:17:55.567Z,100241.53
2023-04-07T23:26:16.537Z,100251.22
2023-04-07T23:33:39.096Z,100255.53
2023-04-07T23:35:36.796Z,100249.78
2023-04-07T23:40:27.565Z,100250.34
2023-04-07T23:42:09.456Z,100256.22
2023-04-07T23:44:13.666Z,100251.59
2023-04-07T23:45:56.572Z,100250.03
2023-04-07T23:48:09.347Z,100244.16
2023-04-07T23:50:07.815Z,100253.41
2023-04-07T23:54:56.738Z,100267.47
2023-04-07T23:56:21.860Z,100253.72
2023-04-07T23:57:55.744Z,100262.66
2023-04-07T23:59:20.993Z,100267.88
